Home > Products > Valid Products > TAF

000
FTUS45 KPIH 211700 CCA
TAFPIH
TAF COR
KPIH 211741Z 2118/2218 24020G30KT P6SM VCSH SCT025 OVC060
     FM211900 24020G30KT P6SM SCT040 SCT160
     FM212200 24015G25KT P6SM FEW040 SCT080
     FM220100 22015KT P6SM FEW035 SCT080
     FM220400 19010KT P6SM FEW006=



000
FTUS45 KPIH 211700
TAFBYI
TAF
KBYI 211720Z 2118/2218 28020G30KT P6SM -SHRA SCT015 BKN035 OVC050
     FM211900 28020G30KT P6SM SCT040
     FM220000 27010G20KT P6SM FEW060 SCT160
     FM220200 20008KT P6SM FEW050
     FM221500 07008KT P6SM FEW040 SCT090 BKN120=



000
FTUS45 KPIH 211700
TAFSUN
TAF
KSUN 211720Z 2118/2218 VRB05KT P6SM -SHRA VCTS SCT025 BKN040CB
      BKN090
     FM212100 26015KT P6SM VCSH SCT040 SCT090
     FM220100 31010KT P6SM SKC
     FM221500 VRB04KT P6SM SCT040 BKN130=



000
FTUS45 KPIH 211700
TAFIDA
TAF
KIDA 211720Z 2118/2218 21025G35KT P6SM VCSH SCT025 BKN070 OVC120
     FM211900 23025G35KT P6SM SCT035 SCT180
     FM220000 25015G25KT P6SM -SHRA BKN050 BKN070
     FM220600 18006KT P6SM SCT060
     FM221200 VRB04KT P6SM SCT180=



000
FTUS45 KPIH 211700
TAFPIH
TAF
KPIH 211720Z 2118/2218 24020G30KT P6SM VCSH BKN025 OVC060
     FM211900 24020G30KT P6SM SCT040 SCT160
     FM212200 24015G25KT P6SM FEW040 SCT080
     FM220100 22015KT P6SM FEW035 SCT080
     FM220400 19010KT P6SM FEW006=



000
FTUS45 KPIH 211600 CCA
TAFIDA
TAF COR
KIDA 211621Z 2116/2212 21025G35KT P6SM VCSH SCT025 BKN070 OVC120
      TEMPO 2116/2118 P6SM -SHRA BKN015 BKN070 OVC120
     FM211900 23025G35KT P6SM SCT035 SCT180
     FM220000 25015G25KT P6SM -SHRA BKN050 BKN070
     FM220600 18006KT P6SM SCT060=



000
FTUS45 KPIH 211600 AAC
TAFSUN
TAF AMD
KSUN 211620Z 2116/2212 VRB05KT P6SM -SHRA VCTS SCT025 BKN040CB
      BKN090
      TEMPO 2116/2117 P6SM -SHRA BKN025 OVC060
     FM212100 26015KT P6SM VCSH SCT040 SCT090
     FM220100 31010KT P6SM SKC=



000
FTUS45 KPIH 211600 AAB
TAFIDA
TAF AMD
KIDA 211618Z 2116/2212 21025G35KT P6SM VCSH SCT025 BKN070 OVC120
      TEMPO 2116/2118 P6SM -SHRA BKN025 BKN070 OVC120
     FM211900 23025G35KT P6SM SCT035 SCT180
     FM220000 25015G25KT P6SM -SHRA BKN050 BKN070
     FM220600 18006KT P6SM SCT060=



000
FTUS45 KPIH 211600 AAA
TAFPIH
TAF AMD
KPIH 211615Z 2116/2212 24020G30KT P6SM VCSH BKN025 OVC060
     FM211900 24020G30KT P6SM SCT040 SCT160
     FM212200 24015G25KT P6SM FEW040 SCT080
     FM220100 22015KT P6SM FEW035 SCT080
     FM220400 19010KT P6SM FEW006=



000
FTUS45 KPIH 211600 AAA
TAFPIH
TAF AMD
KPIH 211615Z 2116/2212 24020G30KT P6SM VCSH BKN025 OVC060
     FM211900 24020G30KT P6SM SCT040 SCT160
     FM212200 24015G25KT P6SM FEW040 SCT080
     FM220100 22015KT P6SM FEW035 SCT080
     FM220400 19010KT P6SM FEW006=



000
FTUS45 KPIH 211400 CCB
TAFSUN
TAF COR
KSUN 211429Z 2114/2212 17015KT P6SM VCTS SCT050 BKN080CB
      TEMPO 2115/2117 P6SM -SHRA BKN025 OVC060
     FM211900 26010G20KT P6SM VCSH SCT025 BKN050
     FM220000 31011KT P6SM SCT080=



000
FTUS45 KPIH 211400 AAB
TAFSUN
TAF AMD
KSUN 211428Z 2114/2212 12009KT P6SM VCTS SCT050 BKN080CB
      TEMPO 2115/2117 P6SM -SHRA BKN025 OVC060
     FM211900 26010G20KT P6SM VCSH SCT025 BKN050
     FM220000 31011KT P6SM SCT080=



000
FTUS45 KPIH 211400 AAD
TAFBYI
TAF AMD
KBYI 211427Z 2114/2212 26020G30KT P6SM -SHRA SCT015 BKN035 OVC050
     FM211900 27020G30KT P6SM SCT040
     FM212300 25011KT P6SM FEW090=



000
FTUS45 KPIH 211400 AAA
TAFIDA
TAF AMD
KIDA 211421Z 2114/2212 21018G28KT P6SM VCSH SCT025 BKN050 OVC070
      TEMPO 2114/2117 P6SM -SHRA BKN025 OVC050
     FM211900 23022G32KT P6SM BKN070
     FM220000 25011KT P6SM SCT080=



000
FTUS45 KPIH 211300 AAB
TAFPIH
TAF AMD
KPIH 211355Z 2114/2212 24025G35KT P6SM -SHRA BKN015 OVC050
     FM211700 24030G40KT P6SM VCSH BKN025 OVC060
     FM211900 24025G35KT P6SM SCT040 SCT160
     FM212200 24020G30KT P6SM FEW040
     FM220100 21015KT P6SM FEW035=



000
FTUS45 KPIH 211200 CCA
TAFSUN
TAF COR
KSUN 211251Z 2113/2212 12009KT P6SM VCTS SCT050 BKN080CB
      TEMPO 2114/2117 P6SM -SHRA BKN015 OVC060
     FM211900 26010G20KT P6SM VCSH SCT025 BKN050
     FM220000 31011KT P6SM SCT080=



000
FTUS45 KPIH 211200 AAA
TAFSUN
TAF AMD
KSUN 211250Z 2113/2212 12009KT P6SM VCTS SCT050 BKN080CB
     FM211400 24008KT P6SM -SHRA BKN015 OVC060
     FM211900 26010G20KT P6SM VCSH SCT025 BKN050
     FM220000 31011KT P6SM SCT080=



000
FTUS45 KPIH 211200 AAC
TAFBYI
TAF AMD
KBYI 211248Z 2113/2212 26017G27KT P6SM VCTS SCT040 BKN070CB OVC090
      TEMPO 2113/2117 26030G40KT P6SM -SHRA OVC015
     FM211900 27020G30KT P6SM SCT080
     FM212300 25011KT P6SM FEW090=



000
FTUS45 KPIH 211200 AAA
TAFPIH
TAF AMD
KPIH 211222Z 2112/2212 22020G30KT P6SM VCTS BKN050 OVC070CB
     FM211500 24025G35KT P6SM VCSH SCT050 BKN070
     FM211900 24026G36KT P6SM SCT070
     FM220000 22018KT P6SM FEW080
     FM220600 21007KT P6SM FEW080=



000
FTUS45 KPIH 211200 AAB
TAFBYI
TAF AMD
KBYI 211221Z 2112/2212 26017G27KT P6SM VCTS SCT040 BKN070CB OVC090
      TEMPO 2115/2118 26027G37KT P6SM -SHRA OVC015
     FM211900 27020G30KT P6SM SCT080
     FM212300 25011KT P6SM FEW090=



000
FTUS45 KPIH 211200 AAA
TAFBYI
TAF AMD
KBYI 211200Z 2112/2212 26017G27KT P6SM VCSH SCT040 BKN070 OVC090
      TEMPO 2115/2118 P6SM -SHRA OVC015
     FM211900 27020G30KT P6SM SCT080
     FM212300 25011KT P6SM FEW090=



000
FTUS45 KPIH 211200 AAA
TAFBYI
TAF AMD
KBYI 211200Z 2112/2212 26017G27KT P6SM VCSH SCT040 BKN070 OVC090
      TEMPO 2115/2118 P6SM -SHRA OVC015
     FM211900 27020G30KT P6SM SCT080
     FM212300 25011KT P6SM FEW090=



000
FTUS45 KPIH 211100 CCA
TAFPIH
TAF COR
KPIH 211154Z 2112/2212 21015G25KT P6SM -SHRA VCTS BKN050 OVC070CB
     FM211500 24020G30KT P6SM VCSH SCT050 BKN070
     FM211900 24026G36KT P6SM SCT070
     FM220000 22018KT P6SM FEW080
     FM220600 21007KT P6SM FEW080=



000
FTUS45 KPIH 211100 CCA
TAFPIH
TAF COR
KPIH 211154Z 2112/2212 21015G25KT P6SM -SHRA VCTS BKN050 OVC070CB
     FM211500 24020G30KT P6SM VCSH SCT050 BKN070
     FM211900 24026G36KT P6SM SCT070
     FM220000 22018KT P6SM FEW080
     FM220600 21007KT P6SM FEW080=



000
FTUS45 KPIH 211100
TAFIDA
TAF
KIDA 211126Z 2112/2212 21014KT P6SM -SHRA VCTS SCT025 BKN040CB
      OVC100
     FM211500 21018G28KT P6SM VCSH SCT030 BKN050 OVC070
     FM211900 23022G32KT P6SM BKN070
     FM220000 25011KT P6SM SCT080=



000
FTUS45 KPIH 211100
TAFSUN
TAF
KSUN 211126Z 2112/2212 20006KT P6SM VCSH SCT050 BKN100
     FM211400 24008KT P6SM -SHRA BKN035 OVC060
     FM211900 26010G20KT P6SM VCSH SCT025 BKN050
     FM220000 31011KT P6SM SCT080
      AMD LTD TO CLD VIS AND WIND TIL 211300=



000
FTUS45 KPIH 211100
TAFBYI
TAF
KBYI 211126Z 2112/2212 26020G30KT P6SM VCSH SCT040 BKN070 OVC090
     FM211900 27020G30KT P6SM SCT080
     FM212300 25011KT P6SM FEW090=



000
FTUS45 KPIH 211100
TAFPIH
TAF
KPIH 211126Z 2112/2212 24025G35KT P6SM -SHRA VCTS BKN050 OVC070CB
     FM211900 24026G36KT P6SM SCT070
     FM220000 22018KT P6SM FEW080
     FM220600 21007KT P6SM FEW080=



000
FTUS45 KPIH 211100
TAFIDA
TAF
KIDA 211126Z 2112/2212 21014KT P6SM -SHRA VCTS SCT025 BKN040CB
      OVC100
     FM211500 21018G28KT P6SM VCSH SCT030 BKN050 OVC070
     FM211900 23022G32KT P6SM BKN070
     FM220000 25011KT P6SM SCT080=



000
FTUS45 KPIH 211100
TAFPIH
TAF
KPIH 211126Z 2112/2212 24025G35KT P6SM -SHRA VCTS BKN050 OVC070CB
     FM211900 24026G36KT P6SM SCT070
     FM220000 22018KT P6SM FEW080
     FM220600 21007KT P6SM FEW080=



000
FTUS45 KPIH 211100
TAFBYI
TAF
KBYI 211126Z 2112/2212 26020G30KT P6SM VCSH SCT040 BKN070 OVC090
     FM211900 27020G30KT P6SM SCT080
     FM212300 25011KT P6SM FEW090=



000
FTUS45 KPIH 211100
TAFSUN
TAF
KSUN 211126Z 2112/2212 20006KT P6SM VCSH SCT050 BKN100
     FM211400 24008KT P6SM -SHRA BKN035 OVC060
     FM211900 26010G20KT P6SM VCSH SCT025 BKN050
     FM220000 31011KT P6SM SCT080
      AMD LTD TO CLD VIS AND WIND TIL 211300=



000
FTUS45 KPIH 211000 CCA
TAFPIH
TAF COR
KPIH 211001Z 2110/2206 17017G27KT P6SM VCTS SCT050 BKN090CB
     FM211200 22015G25KT P6SM -SHRA SCT030 BKN050 OVC070
     FM211500 23020G30KT P6SM VCSH BKN060 OVC080
     FM211900 24026G36KT P6SM SCT070
     FM220100 22018KT P6SM FEW080 BKN200=



000
FTUS45 KPIH 211000 CCA
TAFPIH
TAF COR
KPIH 211001Z 2110/2206 17017G27KT P6SM VCTS SCT050 BKN090CB
     FM211200 22015G25KT P6SM -SHRA SCT030 BKN050 OVC070
     FM211500 23020G30KT P6SM VCSH BKN060 OVC080
     FM211900 24026G36KT P6SM SCT070
     FM220100 22018KT P6SM FEW080 BKN200=



000
FTUS45 KPIH 210900 AAA
TAFBYI
TAF AMD
KBYI 210959Z 2110/2206 26020G30KT P6SM -SHRA SCT040 BKN070 OVC090
     FM211900 27020G30KT P6SM SCT080
     FM212300 25011KT P6SM FEW090 BKN200=



000
FTUS45 KPIH 210900 AAA
TAFBYI
TAF AMD
KBYI 210959Z 2110/2206 26020G30KT P6SM -SHRA SCT040 BKN070 OVC090
     FM211900 27020G30KT P6SM SCT080
     FM212300 25011KT P6SM FEW090 BKN200=



000
FTUS45 KPIH 210900 AAA
TAFPIH
TAF AMD
KPIH 210958Z 2110/2206 17017G27KT P6SM VCSH SCT050 BKN090
     FM211200 22015G25KT P6SM -SHRA SCT030 BKN050 OVC070
     FM211500 23020G30KT P6SM VCSH BKN060 OVC080
     FM211900 24026G36KT P6SM SCT070
     FM220100 22018KT P6SM FEW080 BKN200=



000
FTUS45 KPIH 210900 AAA
TAFPIH
TAF AMD
KPIH 210958Z 2110/2206 17017G27KT P6SM VCSH SCT050 BKN090
     FM211200 22015G25KT P6SM -SHRA SCT030 BKN050 OVC070
     FM211500 23020G30KT P6SM VCSH BKN060 OVC080
     FM211900 24026G36KT P6SM SCT070
     FM220100 22018KT P6SM FEW080 BKN200=



000
FTUS45 KPIH 210800 AAA
TAFIDA
TAF AMD
KIDA 210832Z 2109/2206 21008KT P6SM VCTS SCT080CB BKN110
     FM211200 17015KT P6SM -SHRA SCT025 BKN040 OVC060
     FM211500 21015G25KT P6SM VCSH SCT030 BKN050 OVC070
     FM211900 23022G32KT P6SM SCT070
     FM220000 21014KT P6SM SCT080 BKN200=



000
FTUS45 KPIH 210800 AAA
TAFSUN
TAF AMD
KSUN 210810Z 2108/2206 12007KT P6SM -SHRA VCTS SCT025 OVC050CB
     FM211500 24008KT P6SM -SHRA BKN015 OVC040
     FM211900 26010G20KT P6SM VCSH SCT025 BKN050
     FM212300 28011KT P6SM SCT080 BKN200
      AMD LTD TO CLD VIS AND WIND TIL 211300=



000
FTUS45 KPIH 210600 AAA
TAFPIH
TAF AMD
KPIH 210658Z 2107/2206 17013KT P6SM VCTS SCT050 BKN090CB
     FM211200 22015G25KT P6SM -SHRA SCT030 BKN050 OVC070
     FM211500 23020G30KT P6SM VCSH BKN060 OVC080
     FM211900 24026G36KT P6SM SCT070
     FM220100 22018KT P6SM FEW080 BKN200=



000
FTUS45 KPIH 210500
TAFBYI
TAF
KBYI 210520Z 2106/2206 20011KT P6SM VCSH BKN090
     FM211000 25015G25KT P6SM -SHRA SCT040 BKN070 OVC090
     FM211900 27020G30KT P6SM SCT080
     FM212300 25011KT P6SM FEW090 BKN200=



000
FTUS45 KPIH 210500
TAFPIH
TAF
KPIH 210520Z 2106/2206 17011KT P6SM VCSH SCT050 BKN090 BKN120
     FM211200 22015G25KT P6SM -SHRA SCT030 BKN050 OVC070
     FM211500 23020G30KT P6SM VCSH BKN060 OVC080
     FM211900 24026G36KT P6SM SCT070
     FM220100 22018KT P6SM FEW080 BKN200=



000
FTUS45 KPIH 210500
TAFIDA
TAF
KIDA 210520Z 2106/2206 14010KT P6SM VCSH SCT080 BKN110
     FM211200 17015KT P6SM -SHRA SCT025 BKN040 OVC060
     FM211500 21015G25KT P6SM VCSH SCT030 BKN050 OVC070
     FM211900 23022G32KT P6SM SCT070
     FM220000 21014KT P6SM SCT080 BKN200=



000
FTUS45 KPIH 210500
TAFSUN
TAF
KSUN 210520Z 2106/2206 20010KT P6SM VCSH SCT050 BKN090
     FM211000 VRB04KT P6SM -SHRA SCT025 OVC050
     FM211500 24008KT P6SM -SHRA BKN015 OVC040
     FM211900 26010G20KT P6SM VCSH SCT025 BKN050
     FM212300 28011KT P6SM SCT080 BKN200
      AMD LTD TO CLD VIS AND WIND TIL 211300=



000
FTUS45 KPIH 202300 AAA
TAFSUN
TAF AMD
KSUN 202342Z 2100/2124 13010KT P6SM SCT100
     FM210300 20010KT P6SM VCSH SCT050 BKN090
     FM211000 VRB04KT P6SM -SHRA SCT025 OVC050
     FM211500 24008KT P6SM -SHRA BKN015 OVC040
     FM211900 28010G15KT P6SM VCSH SCT025 BKN050
      AMD LTD TO CLD VIS AND WIND 2105/2113=



000
FTUS45 KPIH 202300
TAFBYI
TAF
KBYI 202340Z 2100/2124 20011KT P6SM FEW100
     FM210200 16008KT P6SM VCSH SCT080 BKN110
     FM210500 16010KT P6SM VCSH BKN090
     FM211000 25015G25KT P6SM -SHRA SCT040 BKN070 OVC090
     FM211900 27020G30KT P6SM SCT080=



000
FTUS45 KPIH 202300
TAFPIH
TAF
KPIH 202340Z 2100/2124 17015KT P6SM SCT080
     FM210600 17010KT P6SM VCSH SCT050 BKN090 BKN120
     FM211200 22015G25KT P6SM -SHRA SCT030 BKN050 OVC070
     FM211500 23020G30KT P6SM BKN060 OVC080
     FM211900 24026G36KT P6SM SCT070=



000
FTUS45 KPIH 202300
TAFIDA
TAF
KIDA 202340Z 2100/2124 18006KT P6SM SCT080
     FM210400 12006KT P6SM FEW110
     FM210900 14010KT P6SM VCSH SCT080 BKN110
     FM211200 17015KT P6SM -SHRA SCT025 BKN040 OVC060
     FM211500 21015G25KT P6SM SCT030 BKN050 OVC070
     FM211900 23022G32KT P6SM SCT070=



000
FTUS45 KPIH 202300
TAFSUN
TAF
KSUN 202340Z 2100/2124 13010KT P6SM BKN090
     FM210100 13010KT P6SM -SHRA SCT050 BKN090
     FM211100 VRB04KT P6SM -SHRA SCT025 OVC050
     FM211600 24008KT P6SM -SHRA BKN015 OVC040
     FM212000 28010G15KT P6SM VCSH SCT025 BKN050
      AMD LTD TO CLD VIS AND WIND 2105/2113=



000
FTUS45 KPIH 202000 AAA
TAFBYI
TAF AMD
KBYI 202054Z 2021/2118 20015KT P6SM FEW100
     FM210200 16008KT P6SM VCSH SCT080 BKN110
     FM210500 16010KT P6SM -SHRA BKN090
     FM211000 25015G25KT P6SM VCSH BKN070 BKN090=



000
FTUS45 KPIH 201700
TAFIDA
TAF
KIDA 201720Z 2018/2118 35006KT P6SM BKN090
     FM202200 23006KT P6SM SCT080
     FM210400 12006KT P6SM FEW110
     FM210900 14010KT P6SM -SHRA SCT080 BKN110
     FM211200 17015KT P6SM -SHRA SCT070 BKN090=



000
FTUS45 KPIH 201700
TAFPIH
TAF
KPIH 201720Z 2018/2118 01006KT P6SM BKN100
     FM202100 17015KT P6SM SCT080
     FM210100 10006KT P6SM FEW100
     FM210600 17010KT P6SM VCSH BKN090 BKN120
     FM211500 23015G25KT P6SM BKN040 OVC070=



000
FTUS45 KPIH 201700
TAFBYI
TAF
KBYI 201720Z 2018/2118 08006KT P6SM FEW070
     FM202200 20010KT P6SM FEW100
     FM210200 16008KT P6SM VCSH SCT080 BKN110
     FM210500 16010KT P6SM -SHRA BKN090
     FM211000 25015G25KT P6SM VCSH BKN070 BKN090=



000
FTUS45 KPIH 201700
TAFSUN
TAF
KSUN 201720Z 2018/2118 13010KT P6SM BKN090
     FM210100 13010KT P6SM -SHRA SCT050 BKN090
     FM211100 VRB04KT P6SM -SHRA SCT025 OVC050
     FM211600 24008KT P6SM -SHRA BKN015 OVC040=



000
FTUS45 KPIH 201100
TAFBYI
TAF
KBYI 201120Z 2012/2112 VRB05KT P6SM SKC
     FM201900 15011KT P6SM SCT080
     FM210400 18008KT P6SM VCSH BKN100=



000
FTUS45 KPIH 201100
TAFIDA
TAF
KIDA 201120Z 2012/2112 35005KT P6SM SKC
     FM202000 21008KT P6SM SCT080
     FM210400 VRB05KT P6SM BKN100=



000
FTUS45 KPIH 201100
TAFSUN
TAF
KSUN 201120Z 2012/2112 31009KT P6SM SKC
     FM201800 13008KT P6SM BKN120
     FM210300 30009KT P6SM VCSH BKN100 BKN200
      AMD LTD TO CLD VIS AND WIND TIL 201300=



000
FTUS45 KPIH 201100
TAFPIH
TAF
KPIH 201120Z 2012/2112 VRB05KT P6SM SKC
     FM202000 18010KT P6SM SCT080
     FM210200 VRB05KT P6SM BKN200
     FM210900 17008KT P6SM VCSH BKN100=



000
FTUS45 KPIH 200500
TAFBYI
TAF
KBYI 200520Z 2006/2106 VRB05KT P6SM SKC
     FM201900 14010KT P6SM SCT080
     FM210200 VRB05KT P6SM BKN200=



000
FTUS45 KPIH 200500
TAFIDA
TAF
KIDA 200520Z 2006/2106 VRB05KT P6SM SKC
     FM202000 21008KT P6SM SCT080
     FM210200 VRB05KT P6SM BKN200=



000
FTUS45 KPIH 200500
TAFPIH
TAF
KPIH 200520Z 2006/2106 VRB05KT P6SM SKC
     FM202000 18010KT P6SM SCT080
     FM210200 VRB05KT P6SM BKN200=



000
FTUS45 KPIH 200500
TAFSUN
TAF
KSUN 200520Z 2006/2106 31011KT P6SM SKC
     FM201800 13008KT P6SM FEW200
     FM210300 30009KT P6SM SCT100 BKN200
      AMD LTD TO CLD VIS AND WIND TIL 201300=



000
FTUS45 KPIH 192300
TAFPIH
TAF
KPIH 192320Z 2000/2024 VRB05KT P6SM SKC=



000
FTUS45 KPIH 192300
TAFSUN
TAF
KSUN 192320Z 2000/2024 15008KT P6SM SKC
     FM200200 31011KT P6SM FEW200
     FM201800 13008KT P6SM FEW200
      AMD LTD TO CLD VIS AND WIND 2005/2013=



000
FTUS45 KPIH 192300
TAFIDA
TAF
KIDA 192320Z 2000/2024 VRB05KT P6SM SKC=



000
FTUS45 KPIH 192300
TAFBYI
TAF
KBYI 192320Z 2000/2024 06008KT P6SM SKC=



000
FTUS45 KPIH 192300
TAFBYI
TAF
KBYI 192320Z 2000/2024 06008KT P6SM SKC=



000
FTUS45 KPIH 192300
TAFSUN
TAF
KSUN 192320Z 2000/2024 15008KT P6SM SKC
     FM200200 31011KT P6SM FEW200
     FM201800 13008KT P6SM FEW200
      AMD LTD TO CLD VIS AND WIND 2005/2013=



000
FTUS45 KPIH 192300
TAFPIH
TAF
KPIH 192320Z 2000/2024 VRB05KT P6SM SKC=



000
FTUS45 KPIH 192300
TAFIDA
TAF
KIDA 192320Z 2000/2024 VRB05KT P6SM SKC=



000
FTUS45 KPIH 191700
TAFBYI
TAF
KBYI 191720Z 1918/2018 06008KT P6SM SKC=



000
FTUS45 KPIH 191700
TAFPIH
TAF
KPIH 191720Z 1918/2018 VRB05KT P6SM SKC=



000
FTUS45 KPIH 191700
TAFSUN
TAF
KSUN 191720Z 1918/2018 15008KT P6SM SKC
     FM200200 31011KT P6SM FEW200=



000
FTUS45 KPIH 191700
TAFIDA
TAF
KIDA 191720Z 1918/2018 VRB05KT P6SM SKC=



000
FTUS45 KPIH 191100
TAFBYI
TAF
KBYI 191120Z 1912/2012 VRB05KT P6SM SKC=



000
FTUS45 KPIH 191100
TAFIDA
TAF
KIDA 191120Z 1912/2012 VRB05KT P6SM SKC=



000
FTUS45 KPIH 191100
TAFPIH
TAF
KPIH 191120Z 1912/2012 VRB05KT P6SM SKC=



000
FTUS45 KPIH 191100
TAFSUN
TAF
KSUN 191120Z 1912/2012 31011KT P6SM SKC
     FM191800 15008KT P6SM SKC
     FM200200 30011KT P6SM SKC
      AMD LTD TO CLD VIS AND WIND TIL 191300=



000
FTUS45 KPIH 190500
TAFPIH
TAF
KPIH 190520Z 1906/2006 VRB05KT P6SM SKC=



000
FTUS45 KPIH 190500
TAFSUN
TAF
KSUN 190520Z 1906/2006 31011KT P6SM SKC
     FM191800 15008KT P6SM SKC
     FM200200 30011KT P6SM SKC
      AMD LTD TO CLD VIS AND WIND TIL 191300=



000
FTUS45 KPIH 190500
TAFBYI
TAF
KBYI 190520Z 1906/2006 VRB05KT P6SM SKC=



000
FTUS45 KPIH 190500
TAFIDA
TAF
KIDA 190520Z 1906/2006 VRB05KT P6SM SKC=



000
FTUS45 KPIH 182300
TAFSUN
TAF
KSUN 182322Z 1900/1924 21011KT P6SM FEW200
     FM190200 31011KT P6SM SKC
     FM191800 15008KT P6SM SKC
      AMD LTD TO CLD VIS AND WIND 1905/1913=



000
FTUS45 KPIH 182300
TAFIDA
TAF
KIDA 182322Z 1900/1924 21011KT P6SM FEW200
     FM190200 VRB05KT P6SM SKC=



000
FTUS45 KPIH 182300
TAFBYI
TAF
KBYI 182322Z 1900/1924 27008KT P6SM FEW200
     FM190300 VRB05KT P6SM SKC=



000
FTUS45 KPIH 182300
TAFPIH
TAF
KPIH 182322Z 1900/1924 25011KT P6SM FEW200
     FM190200 VRB05KT P6SM SKC=



    US Dept of Commerce
    National Oceanic and Atmospheric Administration
    National Weather Service
    1325 East West Highway
    Silver Spring, MD 20910
    Page Author: NWS Internet Services Team
Disclaimer
Information Quality
Credits
Glossary
Privacy Policy
Freedom of Information Act (FOIA)
About Us
Career Opportunities